Logo AVAMET
Benvolgut visitant, si us plau, ingressa Recuperar contrasenya
AVAMET paisatges

Albatera

Dades diàries. Acumulats / Últims 30 dies disponibles

Data Temperatura (°C) Humitat rel. (%) Pressió rel. (hPa) Vent (km/h) Precipitació
Mínima Mitjana Màxima Amplitud
tèrmica
Mínima Mitjana Màxima Mínima Mitjana Màxima Predom. Mitjana Ràfega
màxima
Total
(mm)
Índex-n
Mínima Mitjana Màxima Mínima Mitjana Màxima n
0 a 1
P0 max
mm 5'
Dades mensuals acumulades fins l'últim dia disponible
04/2020 9,3 10,9 12,4 14,9 20,0 21,2 22,4 13,1 37 63 80 1.009 1.011 1.014   5,3 37,0 32,0
Dades anuals acumulades fins l'últim dia disponible
2020 3,4 9,8 16,3 15,0 10,6 20,8 29,7 26,3 7 51 85 1.004 1.021 1.035   6,6 74,0 51,8
Últims 30 dies disponibles
02-04-2020 9,3     13,1     20,0 10,7 38 64 74 1.010 1.011 1.014 S 5,2 32,2 24,8 0,23 7,40
01-04-2020 12,4     16,6     22,4 10,0 37 61 80 1.009 1.010 1.013 SSO 5,3 37,0 7,2 0,22 1,50
31-03-2020 11,7     14,8     18,7 7,0 50 62 73 1.007 1.009 1.011 SO 3,5 20,9 1,6 0,26 0,60
30-03-2020 9,3     12,8     16,6 7,3 53 62 71 1.011 1.012 1.014 S 7,7 38,6 0,0
29-03-2020 8,2     15,1     22,2 14,0 28 50 70 1.014 1.017 1.019 SSE 7,3 33,8 0,0
28-03-2020 8,9     12,4     17,7 8,8 36 57 71 1.016 1.018 1.020 S 4,0 20,9 0,2
27-03-2020 9,7     10,6     11,7 2,0 55 64 71 1.011 1.013 1.016 S 5,1 38,6 9,2 0,42 0,80
26-03-2020 8,7     13,5     20,2 11,5 18 57 80 1.006 1.009 1.013 SSE 7,1 35,4 0,2
25-03-2020 10,2     10,6     15,3 5,1 70 71 72 1.015 1.016 1.017 SSE 3,4 24,1 3,4 0,40
13-03-2020 11,9     16,7     23,6 11,7 29 48 63 1.016 1.017 1.018 SSE 4,5 32,2 0,0
12-03-2020 10,6     17,9     26,8 16,2 24 50 70 1.017 1.019 1.023 S 2,6 20,9 0,0
11-03-2020 11,2     18,2     29,7 18,5 21 51 68 1.021 1.022 1.025 S 5,1 29,0 0,0
10-03-2020 11,4     16,6     21,4 10,0 21 50 66 1.022 1.025 1.027 SSO 4,6 25,7 0,0
09-03-2020 15,9     19,6     23,2 7,3 12 26 40 1.020 1.022 1.024 E 10,8 45,1 0,0
08-03-2020 7,7     16,4     24,9 17,2 15 40 65 1.020 1.023 1.025 SSE 5,1 27,4 0,0
07-03-2020 11,4     15,4     20,9 9,5 20 29 56 1.021 1.023 1.025 SE 12,3 51,5 0,0
06-03-2020 12,7     16,1     19,2 6,5 15 29 42 1.014 1.017 1.022 E 14,2 67,6 0,0
05-03-2020 13,3     19,4     26,7 13,4 21 36 54 1.008 1.013 1.017 E 10,7 51,5 0,0
04-03-2020 16,3     20,1     24,4 8,1 29 40 53 1.017 1.018 1.021 ESE 8,4 53,1 0,0
03-03-2020 9,8     16,8     24,3 14,5 23 36 53 1.013 1.017 1.019 SE 9,9 53,1 0,0
02-03-2020 14,4     19,2     25,2 10,8 15 33 48 1.004 1.009 1.018 E 17,6 70,8 0,0
01-03-2020 14,9     19,0     22,8 7,9 27 39 52 1.013 1.014 1.016 SE 7,0 49,9 0,0
29-02-2020 8,8     16,9     25,6 16,8 15 41 65 1.011 1.015 1.019 SSE 5,2 27,4 0,0
28-02-2020 13,1     18,3     24,6 11,5 18 33 48 1.019 1.020 1.022 SSE 6,7 30,6 0,0
27-02-2020 10,2     18,1     25,2 15,0 12 29 53 1.018 1.020 1.022 SE 6,6 30,6 0,0
26-02-2020 14,1     18,7     23,1 9,0 13 33 56 1.017 1.018 1.021 E 11,0 41,8 0,0
25-02-2020 9,7     18,7     27,1 17,4 7 30 62 1.015 1.018 1.022 E 8,9 30,6 0,0
24-02-2020 6,2     13,5     23,3 17,1 20 51 66 1.022 1.026 1.032 SE 4,9 19,3 0,0
23-02-2020 4,3     12,5     22,3 18,0 14 57 84 1.031 1.033 1.035 SSE 3,7 20,9 0,2
22-02-2020 6,4     12,3     20,5 14,1 32 61 73 1.030 1.032 1.034 SSE 4,0 20,9 0,0
Últims 13 mesos disponibles
12/2019 8,5 10,7 14,1 14,0 14,4 18,2 21,2 12,7 37 59 67 1.006 1.018 1.025 S 6,2 48,3 36,4
11/2019 6,2 11,9 19,8 15,8 14,9 20,3 28,8 22,6 32 46 75 1.001 1.012 1.019 ESE 8,1 72,4 15,0
09/2019 16,7 20,4 24,3 24,4 22,1 28,9 34,1 17,4 37 60 79 1.010 1.017 1.022 NE 6,2 56,3 198,8
06/2019 12,8 17,3 21,3 24,1 24,6 30,5 36,4 23,6 28 48 61 1.009 1.015 1.022 S 6,7 49,9 0,4
05/2019 11,2 14,3 19,4 20,1 21,3 26,4 32,9 21,7 34 54 66 1.006 1.015 1.025 S 6,5 57,9 3,0
04/2019 8,2 11,3 14,2 16,2 14,5 21,8 30,0 21,8 43 58 83 1.000 1.013 1.025 NE 6,4 64,4 123,2
03/2019 5,6 8,0 12,7 14,6 15,3 21,4 28,6 23,0 38 52 81 1.011 1.023 1.030 NE 5,4 49,9 19,0
02/2019 4,6 6,6 11,1 12,7 15,1 19,6 26,8 22,2 27 50 69 997 1.024 1.033 SSE 7,3 78,9 0,8
01/2019 2,0 7,1 12,7 12,5 13,7 18,0 22,5 20,5 36 48 70 1.005 1.016 1.028 E 7,5 53,1 3,4
11/2018 8,1 8,7 9,8 14,3 19,5 21,2 22,9 14,8 51 57 77 1.007 1.015 1.020 E 5,2 30,6 3,2
10/2018 7,1 14,1 17,0 19,3 13,7 25,6 29,9 22,8 35 65 88 1.000 1.014 1.025 SSE 5,2 53,1 45,2
Tots els anys disponibles
Temperatura (°C)
Humitat relativa (%)
Velocitat del vent i ràfega màxima (km/h)
Direcció del vent (°)
Pressió (hPa)
Precipitació (mm)
Nota sobre les dades: s'avisa a l'usuari de la provisionalitat i no oficialitat d'aquestes dades
Logo AVAMET blanc
Web allotjada a Sollutia
Llicència de Creative CommonsLa web d'AVAMET i els seus continguts estan subjectes a una llicència de
Reconeixement - No Comercial - Compartir igual
Últimes estacions:  Altea - Com. Regants (Soci), Almoines (Inforatge), Beniparrell (Inforatge), Albal (Inforatge), Almussafes - Parc Industrial (Inforatge), La Vilavella (Soci), la Serratella (soci) - - -